sensor_id;sensor_type;location;lat;lon;timestamp;pressure;altitude;pressure_sealevel;temperature;humidity
37238;BME280;23129;49.662;8.448;2023-04-09T00:00:09;101593.56;;;7.72;100.00
37238;BME280;23129;49.662;8.448;2023-04-09T00:02:38;101594.44;;;7.71;100.00
37238;BME280;23129;49.662;8.448;2023-04-09T00:05:07;101590.06;;;7.71;100.00
37238;BME280;23129;49.662;8.448;2023-04-09T00:07:36;101590.06;;;7.68;100.00
37238;BME280;23129;49.662;8.448;2023-04-09T00:10:07;101589.22;;;7.66;100.00
37238;BME280;23129;49.662;8.448;2023-04-09T00:12:35;101580.47;;;7.63;100.00
37238;BME280;23129;49.662;8.448;2023-04-09T00:15:05;101576.13;;;7.57;100.00
37238;BME280;23129;49.662;8.448;2023-04-09T00:17:39;101568.28;;;7.52;100.00
37238;BME280;23129;49.662;8.448;2023-04-09T00:20:09;101582.19;;;7.48;100.00
37238;BME280;23129;49.662;8.448;2023-04-09T00:22:37;101574.34;;;7.44;100.00
37238;BME280;23129;49.662;8.448;2023-04-09T00:25:08;101579.53;;;7.41;100.00
37238;BME280;23129;49.662;8.448;2023-04-09T00:27:36;101572.56;;;7.37;100.00
37238;BME280;23129;49.662;8.448;2023-04-09T00:30:06;101573.44;;;7.31;100.00
37238;BME280;23129;49.662;8.448;2023-04-09T00:32:35;101569.06;;;7.28;100.00
37238;BME280;23129;49.662;8.448;2023-04-09T00:35:04;101573.41;;;7.28;100.00
37238;BME280;23129;49.662;8.448;2023-04-09T00:37:33;101568.19;;;7.28;100.00
37238;BME280;23129;49.662;8.448;2023-04-09T00:40:02;101574.28;;;7.28;100.00
37238;BME280;23129;49.662;8.448;2023-04-09T00:42:33;101570.78;;;7.29;100.00
37238;BME280;23129;49.662;8.448;2023-04-09T00:45:03;101574.28;;;7.31;100.00
37238;BME280;23129;49.662;8.448;2023-04-09T00:47:33;101571.69;;;7.35;100.00
37238;BME280;23129;49.662;8.448;2023-04-09T00:50:03;101576.06;;;7.40;100.00
37238;BME280;23129;49.662;8.448;2023-04-09T00:52:32;101577.81;;;7.46;100.00
37238;BME280;23129;49.662;8.448;2023-04-09T00:55:04;101579.56;;;7.53;100.00
37238;BME280;23129;49.662;8.448;2023-04-09T00:57:34;101572.63;;;7.58;100.00
37238;BME280;23129;49.662;8.448;2023-04-09T01:00:05;101572.66;;;7.64;100.00
37238;BME280;23129;49.662;8.448;2023-04-09T01:02:34;101571.78;;;7.65;100.00
37238;BME280;23129;49.662;8.448;2023-04-09T01:05:04;101570.06;;;7.67;100.00
37238;BME280;23129;49.662;8.448;2023-04-09T01:07:41;101577.88;;;7.70;100.00
37238;BME280;23129;49.662;8.448;2023-04-09T01:10:20;101564.84;;;7.73;100.00
37238;BME280;23129;49.662;8.448;2023-04-09T01:13:07;101564.84;;;7.75;100.00
37238;BME280;23129;49.662;8.448;2023-04-09T01:15:40;101565.72;;;7.75;100.00
37238;BME280;23129;49.662;8.448;2023-04-09T01:18:17;101565.72;;;7.75;100.00
37238;BME280;23129;49.662;8.448;2023-04-09T01:20:55;101567.44;;;7.73;100.00
37238;BME280;23129;49.662;8.448;2023-04-09T01:23:33;101557.88;;;7.77;100.00
37238;BME280;23129;49.662;8.448;2023-04-09T01:26:14;101558.75;;;7.82;100.00
37238;BME280;23129;49.662;8.448;2023-04-09T01:28:55;101560.50;;;7.85;100.00
37238;BME280;23129;49.662;8.448;2023-04-09T01:31:27;101562.25;;;7.86;100.00
37238;BME280;23129;49.662;8.448;2023-04-09T01:33:57;101567.47;;;7.86;100.00
37238;BME280;23129;49.662;8.448;2023-04-09T01:36:28;101561.38;;;7.88;100.00
37238;BME280;23129;49.662;8.448;2023-04-09T01:39:00;101558.78;;;7.90;100.00
37238;BME280;23129;49.662;8.448;2023-04-09T01:41:31;101560.50;;;7.91;100.00
37238;BME280;23129;49.662;8.448;2023-04-09T01:44:03;101561.38;;;7.91;100.00
37238;BME280;23129;49.662;8.448;2023-04-09T01:46:34;101571.84;;;7.91;100.00
37238;BME280;23129;49.662;8.448;2023-04-09T01:49:04;101563.13;;;7.89;100.00
37238;BME280;23129;49.662;8.448;2023-04-09T01:51:33;101568.34;;;7.86;100.00
37238;BME280;23129;49.662;8.448;2023-04-09T01:54:02;101570.94;;;7.86;100.00
37238;BME280;23129;49.662;8.448;2023-04-09T01:56:40;101570.09;;;7.87;100.00
37238;BME280;23129;49.662;8.448;2023-04-09T01:59:10;101570.97;;;7.88;100.00
37238;BME280;23129;49.662;8.448;2023-04-09T02:01:43;101575.31;;;7.89;100.00
37238;BME280;23129;49.662;8.448;2023-04-09T02:04:17;101571.84;;;7.87;100.00
37238;BME280;23129;49.662;8.448;2023-04-09T02:06:52;101576.16;;;7.86;100.00
37238;BME280;23129;49.662;8.448;2023-04-09T02:09:28;101573.56;;;7.88;100.00
37238;BME280;23129;49.662;8.448;2023-04-09T02:11:59;101566.59;;;7.91;100.00
37238;BME280;23129;49.662;8.448;2023-04-09T02:14:32;101571.84;;;7.91;100.00
37238;BME280;23129;49.662;8.448;2023-04-09T02:17:00;101569.25;;;7.93;100.00
37238;BME280;23129;49.662;8.448;2023-04-09T02:19:38;101566.59;;;7.91;100.00
37238;BME280;23129;49.662;8.448;2023-04-09T02:22:08;101568.34;;;7.91;100.00
37238;BME280;23129;49.662;8.448;2023-04-09T02:24:37;101565.75;;;7.91;100.00
37238;BME280;23129;49.662;8.448;2023-04-09T02:27:07;101569.25;;;7.93;100.00
37238;BME280;23129;49.662;8.448;2023-04-09T02:29:38;101571.84;;;7.91;100.00
37238;BME280;23129;49.662;8.448;2023-04-09T02:32:07;101565.75;;;7.88;100.00
37238;BME280;23129;49.662;8.448;2023-04-09T02:34:36;101564.84;;;7.86;100.00
37238;BME280;23129;49.662;8.448;2023-04-09T02:37:05;101567.47;;;7.83;100.00
37238;BME280;23129;49.662;8.448;2023-04-09T02:39:33;101563.13;;;7.78;100.00
37238;BME280;23129;49.662;8.448;2023-04-09T02:42:02;101566.59;;;7.76;100.00
37238;BME280;23129;49.662;8.448;2023-04-09T02:44:30;101565.72;;;7.72;100.00
37238;BME280;23129;49.662;8.448;2023-04-09T02:47:00;101558.72;;;7.68;100.00
37238;BME280;23129;49.662;8.448;2023-04-09T02:49:29;101563.09;;;7.63;100.00
37238;BME280;23129;49.662;8.448;2023-04-09T02:51:58;101572.63;;;7.58;100.00
37238;BME280;23129;49.662;8.448;2023-04-09T02:54:26;101567.41;;;7.55;100.00
37238;BME280;23129;49.662;8.448;2023-04-09T02:56:55;101570.91;;;7.51;100.00
37238;BME280;23129;49.662;8.448;2023-04-09T02:59:24;101570.00;;;7.43;100.00
37238;BME280;23129;49.662;8.448;2023-04-09T03:01:52;101563.00;;;7.34;100.00
37238;BME280;23129;49.662;8.448;2023-04-09T03:04:22;101557.72;;;7.26;100.00
37238;BME280;23129;49.662;8.448;2023-04-09T03:06:51;101555.13;;;7.19;100.00
37238;BME280;23129;49.662;8.448;2023-04-09T03:09:19;101560.28;;;7.11;100.00
37238;BME280;23129;49.662;8.448;2023-04-09T03:11:48;101559.41;;;7.04;100.00
37238;BME280;23129;49.662;8.448;2023-04-09T03:14:16;101552.41;;;6.97;100.00
37238;BME280;23129;49.662;8.448;2023-04-09T03:16:45;101554.97;;;6.90;100.00
37238;BME280;23129;49.662;8.448;2023-04-09T03:19:13;101561.03;;;6.82;100.00
37238;BME280;23129;49.662;8.448;2023-04-09T03:21:43;101562.72;;;6.76;100.00
37238;BME280;23129;49.662;8.448;2023-04-09T03:24:12;101553.16;;;6.70;100.00
37238;BME280;23129;49.662;8.448;2023-04-09T03:26:42;101554.84;;;6.65;100.00
37238;BME280;23129;49.662;8.448;2023-04-09T03:29:11;101547.84;;;6.59;100.00
37238;BME280;23129;49.662;8.448;2023-04-09T03:31:40;101547.81;;;6.55;100.00
37238;BME280;23129;49.662;8.448;2023-04-09T03:34:09;101551.25;;;6.51;100.00
37238;BME280;23129;49.662;8.448;2023-04-09T03:36:37;101553.84;;;6.48;100.00
37238;BME280;23129;49.662;8.448;2023-04-09T03:39:16;101547.72;;;6.43;100.00
37238;BME280;23129;49.662;8.448;2023-04-09T03:41:45;101551.19;;;6.38;100.00
37238;BME280;23129;49.662;8.448;2023-04-09T03:44:15;101551.13;;;6.32;100.00
37238;BME280;23129;49.662;8.448;2023-04-09T03:46:58;101548.50;;;6.26;100.00
37238;BME280;23129;49.662;8.448;2023-04-09T03:49:28;101544.97;;;6.20;100.00
37238;BME280;23129;49.662;8.448;2023-04-09T03:52:05;101549.22;;;6.13;100.00
37238;BME280;23129;49.662;8.448;2023-04-09T03:54:38;101545.75;;;6.08;100.00
37238;BME280;23129;49.662;8.448;2023-04-09T03:57:12;101547.44;;;6.03;100.00
37238;BME280;23129;49.662;8.448;2023-04-09T03:59:43;101549.09;;;5.98;100.00
37238;BME280;23129;49.662;8.448;2023-04-09T04:02:16;101546.41;;;5.90;100.00
37238;BME280;23129;49.662;8.448;2023-04-09T04:04:50;101550.66;;;5.83;100.00
37238;BME280;23129;49.662;8.448;2023-04-09T04:07:20;101552.38;;;5.78;100.00
37238;BME280;23129;49.662;8.448;2023-04-09T04:09:55;101554.06;;;5.73;100.00
37238;BME280;23129;49.662;8.448;2023-04-09T04:12:24;101544.47;;;5.70;100.00
37238;BME280;23129;49.662;8.448;2023-04-09T04:15:09;101551.41;;;5.65;100.00
37238;BME280;23129;49.662;8.448;2023-04-09T04:17:44;101547.91;;;5.65;100.00
37238;BME280;23129;49.662;8.448;2023-04-09T04:20:21;101553.09;;;5.65;100.00
37238;BME280;23129;49.662;8.448;2023-04-09T04:23:04;101554.88;;;5.66;100.00
37238;BME280;23129;49.662;8.448;2023-04-09T04:25:40;101559.19;;;5.67;100.00
37238;BME280;23129;49.662;8.448;2023-04-09T04:28:13;101559.19;;;5.67;100.00
37238;BME280;23129;49.662;8.448;2023-04-09T04:30:42;101561.84;;;5.70;100.00
37238;BME280;23129;49.662;8.448;2023-04-09T04:33:10;101561.84;;;5.70;100.00
37238;BME280;23129;49.662;8.448;2023-04-09T04:35:45;101560.09;;;5.70;100.00
37238;BME280;23129;49.662;8.448;2023-04-09T04:38:29;101562.72;;;5.69;100.00
37238;BME280;23129;49.662;8.448;2023-04-09T04:41:03;101559.19;;;5.67;100.00
37238;BME280;23129;49.662;8.448;2023-04-09T04:43:35;101566.13;;;5.65;100.00
37238;BME280;23129;49.662;8.448;2023-04-09T04:46:05;101568.72;;;5.65;100.00
37238;BME280;23129;49.662;8.448;2023-04-09T04:48:33;101560.91;;;5.65;100.00
37238;BME280;23129;49.662;8.448;2023-04-09T04:51:01;101566.16;;;5.68;100.00
37238;BME280;23129;49.662;8.448;2023-04-09T04:53:38;101569.69;;;5.73;100.00
37238;BME280;23129;49.662;8.448;2023-04-09T04:56:14;101567.97;;;5.75;100.00
37238;BME280;23129;49.662;8.448;2023-04-09T04:59:00;101570.59;;;5.78;100.00
37238;BME280;23129;49.662;8.448;2023-04-09T05:01:40;101559.31;;;5.79;100.00
37238;BME280;23129;49.662;8.448;2023-04-09T05:04:11;101568.91;;;5.82;100.00
37238;BME280;23129;49.662;8.448;2023-04-09T05:06:39;101568.91;;;5.83;100.00
37238;BME280;23129;49.662;8.448;2023-04-09T05:09:12;101567.19;;;5.84;100.00
37238;BME280;23129;49.662;8.448;2023-04-09T05:11:55;101569.75;;;5.82;100.00
37238;BME280;23129;49.662;8.448;2023-04-09T05:14:24;101573.28;;;5.84;100.00
37238;BME280;23129;49.662;8.448;2023-04-09T05:16:53;101571.56;;;5.86;100.00
37238;BME280;23129;49.662;8.448;2023-04-09T05:19:28;101577.63;;;5.88;100.00
37238;BME280;23129;49.662;8.448;2023-04-09T05:22:00;101579.41;;;5.89;100.00
37238;BME280;23129;49.662;8.448;2023-04-09T05:24:29;101580.28;;;5.90;100.00
37238;BME280;23129;49.662;8.448;2023-04-09T05:26:59;101578.50;;;5.87;100.00
37238;BME280;23129;49.662;8.448;2023-04-09T05:29:29;101574.13;;;5.85;100.00
37238;BME280;23129;49.662;8.448;2023-04-09T05:31:58;101588.03;;;5.84;100.00
37238;BME280;23129;49.662;8.448;2023-04-09T05:34:35;101584.53;;;5.82;100.00
37238;BME280;23129;49.662;8.448;2023-04-09T05:37:05;101584.53;;;5.82;100.00
37238;BME280;23129;49.662;8.448;2023-04-09T05:39:34;101581.88;;;5.80;100.00
37238;BME280;23129;49.662;8.448;2023-04-09T05:42:04;101581.84;;;5.77;100.00
37238;BME280;23129;49.662;8.448;2023-04-09T05:44:38;101588.78;;;5.75;100.00
37238;BME280;23129;49.662;8.448;2023-04-09T05:47:11;101586.16;;;5.73;100.00
37238;BME280;23129;49.662;8.448;2023-04-09T05:49:45;101592.19;;;5.71;100.00
37238;BME280;23129;49.662;8.448;2023-04-09T05:52:15;101581.78;;;5.71;100.00
37238;BME280;23129;49.662;8.448;2023-04-09T05:54:44;101585.25;;;5.70;100.00
37238;BME280;23129;49.662;8.448;2023-04-09T05:57:17;101585.25;;;5.70;100.00
37238;BME280;23129;49.662;8.448;2023-04-09T05:59:53;101580.06;;;5.70;100.00
37238;BME280;23129;49.662;8.448;2023-04-09T06:02:22;101587.00;;;5.71;100.00
37238;BME280;23129;49.662;8.448;2023-04-09T06:04:51;101587.03;;;5.72;100.00
37238;BME280;23129;49.662;8.448;2023-04-09T06:07:20;101587.94;;;5.76;100.00
37238;BME280;23129;49.662;8.448;2023-04-09T06:09:49;101588.81;;;5.78;100.00
37238;BME280;23129;49.662;8.448;2023-04-09T06:12:19;101595.78;;;5.79;100.00
37238;BME280;23129;49.662;8.448;2023-04-09T06:14:47;101590.56;;;5.79;100.00
37238;BME280;23129;49.662;8.448;2023-04-09T06:17:16;101597.50;;;5.80;100.00
37238;BME280;23129;49.662;8.448;2023-04-09T06:19:45;101599.31;;;5.84;100.00
37238;BME280;23129;49.662;8.448;2023-04-09T06:22:13;101590.66;;;5.88;100.00
37238;BME280;23129;49.662;8.448;2023-04-09T06:24:42;101598.50;;;5.91;100.00
37238;BME280;23129;49.662;8.448;2023-04-09T06:27:11;101597.72;;;5.96;100.00
37238;BME280;23129;49.662;8.448;2023-04-09T06:29:40;101594.28;;;6.00;100.00
37238;BME280;23129;49.662;8.448;2023-04-09T06:32:09;101597.78;;;6.02;100.00
37238;BME280;23129;49.662;8.448;2023-04-09T06:34:37;101603.88;;;6.05;100.00
37238;BME280;23129;49.662;8.448;2023-04-09T06:37:06;101608.28;;;6.11;100.00
37238;BME280;23129;49.662;8.448;2023-04-09T06:39:35;101608.34;;;6.17;100.00
37238;BME280;23129;49.662;8.448;2023-04-09T06:42:06;101612.75;;;6.26;100.00
37238;BME280;23129;49.662;8.448;2023-04-09T06:44:50;101613.72;;;6.38;100.00
37238;BME280;23129;49.662;8.448;2023-04-09T06:47:19;101609.50;;;6.53;100.00
37238;BME280;23129;49.662;8.448;2023-04-09T06:49:47;101616.50;;;6.63;100.00
37238;BME280;23129;49.662;8.448;2023-04-09T06:52:16;101620.06;;;6.73;100.00
37238;BME280;23129;49.662;8.448;2023-04-09T06:54:45;101611.41;;;6.81;100.00
37238;BME280;23129;49.662;8.448;2023-04-09T06:57:13;101611.47;;;6.91;100.00
37238;BME280;23129;49.662;8.448;2023-04-09T06:59:42;101615.06;;;7.03;100.00
37238;BME280;23129;49.662;8.448;2023-04-09T07:02:12;101603.81;;;7.15;100.00
37238;BME280;23129;49.662;8.448;2023-04-09T07:04:40;101607.31;;;7.25;100.00
37238;BME280;23129;49.662;8.448;2023-04-09T07:07:09;101603.91;;;7.37;100.00
37238;BME280;23129;49.662;8.448;2023-04-09T07:09:39;101601.31;;;7.47;100.00
37238;BME280;23129;49.662;8.448;2023-04-09T07:12:08;101606.56;;;7.63;100.00
37238;BME280;23129;49.662;8.448;2023-04-09T07:14:37;101609.25;;;7.80;100.00
37238;BME280;23129;49.662;8.448;2023-04-09T07:17:05;101605.81;;;7.99;100.00
37238;BME280;23129;49.662;8.448;2023-04-09T07:19:35;101604.06;;;8.16;100.00
37238;BME280;23129;49.662;8.448;2023-04-09T07:22:04;101604.97;;;8.37;100.00
37238;BME280;23129;49.662;8.448;2023-04-09T07:24:32;101601.50;;;8.49;100.00
37238;BME280;23129;49.662;8.448;2023-04-09T07:27:03;101598.03;;;8.62;100.00
37238;BME280;23129;49.662;8.448;2023-04-09T07:29:31;101601.47;;;8.76;100.00
37238;BME280;23129;49.662;8.448;2023-04-09T07:32:02;101598.81;;;8.96;100.00
37238;BME280;23129;49.662;8.448;2023-04-09T07:34:31;101600.47;;;9.25;100.00
37238;BME280;23129;49.662;8.448;2023-04-09T07:37:00;101595.13;;;9.49;100.00
37238;BME280;23129;49.662;8.448;2023-04-09T07:39:29;101599.34;;;9.76;100.00
37238;BME280;23129;49.662;8.448;2023-04-09T07:42:00;101599.25;;;9.96;100.00
37238;BME280;23129;49.662;8.448;2023-04-09T07:44:32;101603.53;;;10.06;100.00
37238;BME280;23129;49.662;8.448;2023-04-09T07:47:00;101598.13;;;10.25;100.00
37238;BME280;23129;49.662;8.448;2023-04-09T07:49:29;101605.88;;;10.43;100.00
37238;BME280;23129;49.662;8.448;2023-04-09T07:51:59;101609.19;;;10.68;100.00
37238;BME280;23129;49.662;8.448;2023-04-09T07:54:28;101608.03;;;10.95;100.00
37238;BME280;23129;49.662;8.448;2023-04-09T07:56:57;101613.69;;;11.36;100.00
37238;BME280;23129;49.662;8.448;2023-04-09T07:59:27;101610.41;;;11.83;100.00
37238;BME280;23129;49.662;8.448;2023-04-09T08:01:57;101609.78;;;12.26;100.00
37238;BME280;23129;49.662;8.448;2023-04-09T08:04:26;101598.03;;;12.50;100.00
37238;BME280;23129;49.662;8.448;2023-04-09T08:06:55;101598.56;;;12.69;100.00
37238;BME280;23129;49.662;8.448;2023-04-09T08:09:25;101600.72;;;12.94;100.00
37238;BME280;23129;49.662;8.448;2023-04-09T08:11:53;101605.63;;;13.14;100.00
37238;BME280;23129;49.662;8.448;2023-04-09T08:14:21;101610.94;;;13.54;100.00
37238;BME280;23129;49.662;8.448;2023-04-09T08:16:50;101608.91;;;13.68;100.00
37238;BME280;23129;49.662;8.448;2023-04-09T08:19:19;101607.44;;;13.94;100.00
37238;BME280;23129;49.662;8.448;2023-04-09T08:21:48;101607.09;;;14.09;100.00
37238;BME280;23129;49.662;8.448;2023-04-09T08:24:17;101604.88;;;14.28;100.00
37238;BME280;23129;49.662;8.448;2023-04-09T08:26:46;101603.53;;;14.46;100.00
37238;BME280;23129;49.662;8.448;2023-04-09T08:29:15;101593.56;;;14.59;100.00
37238;BME280;23129;49.662;8.448;2023-04-09T08:31:44;101603.69;;;14.76;100.00
37238;BME280;23129;49.662;8.448;2023-04-09T08:34:12;101607.81;;;14.86;100.00
37238;BME280;23129;49.662;8.448;2023-04-09T08:36:44;101600.53;;;14.94;100.00
37238;BME280;23129;49.662;8.448;2023-04-09T08:39:15;101605.56;;;15.03;100.00
37238;BME280;23129;49.662;8.448;2023-04-09T08:41:46;101607.69;;;15.22;100.00
37238;BME280;23129;49.662;8.448;2023-04-09T08:44:14;101602.69;;;15.42;100.00
37238;BME280;23129;49.662;8.448;2023-04-09T08:46:44;101600.50;;;15.57;100.00
37238;BME280;23129;49.662;8.448;2023-04-09T08:49:12;101596.03;;;15.88;100.00
37238;BME280;23129;49.662;8.448;2023-04-09T08:51:45;101598.63;;;16.18;100.00
37238;BME280;23129;49.662;8.448;2023-04-09T08:54:15;101593.00;;;16.54;100.00
37238;BME280;23129;49.662;8.448;2023-04-09T08:56:46;101596.47;;;16.82;100.00
37238;BME280;23129;49.662;8.448;2023-04-09T08:59:15;101595.34;;;17.13;100.00
37238;BME280;23129;49.662;8.448;2023-04-09T09:01:45;101608.47;;;16.93;100.00
37238;BME280;23129;49.662;8.448;2023-04-09T09:04:20;101607.78;;;16.87;100.00
37238;BME280;23129;49.662;8.448;2023-04-09T09:06:48;101620.34;;;16.81;100.00
37238;BME280;23129;49.662;8.448;2023-04-09T09:09:20;101615.44;;;16.43;100.00
37238;BME280;23129;49.662;8.448;2023-04-09T09:11:50;101617.97;;;16.20;100.00
37238;BME280;23129;49.662;8.448;2023-04-09T09:14:19;101619.50;;;16.27;100.00
37238;BME280;23129;49.662;8.448;2023-04-09T09:17:03;101618.50;;;16.58;100.00
37238;BME280;23129;49.662;8.448;2023-04-09T09:19:33;101601.81;;;16.81;100.00
37238;BME280;23129;49.662;8.448;2023-04-09T09:22:05;101611.13;;;16.66;100.00
37238;BME280;23129;49.662;8.448;2023-04-09T09:24:45;101606.66;;;16.41;100.00
37238;BME280;23129;49.662;8.448;2023-04-09T09:27:35;101614.19;;;16.27;100.00
37238;BME280;23129;49.662;8.448;2023-04-09T09:30:07;101604.22;;;16.09;100.00
37238;BME280;23129;49.662;8.448;2023-04-09T09:32:36;101602.06;;;15.93;100.00
37238;BME280;23129;49.662;8.448;2023-04-09T09:35:06;101603.97;;;15.88;100.00
37238;BME280;23129;49.662;8.448;2023-04-09T09:37:35;101603.28;;;15.83;100.00
37238;BME280;23129;49.662;8.448;2023-04-09T09:40:04;101605.28;;;15.75;100.00
37238;BME280;23129;49.662;8.448;2023-04-09T09:42:35;101601.19;;;15.63;100.00
37238;BME280;23129;49.662;8.448;2023-04-09T09:45:17;101605.91;;;15.53;100.00
37238;BME280;23129;49.662;8.448;2023-04-09T09:47:46;101603.38;;;15.80;100.00
37238;BME280;23129;49.662;8.448;2023-04-09T09:50:15;101600.75;;;16.07;100.00
37238;BME280;23129;49.662;8.448;2023-04-09T09:52:45;101590.47;;;15.97;100.00
37238;BME280;23129;49.662;8.448;2023-04-09T09:55:15;101594.41;;;15.84;100.00
37238;BME280;23129;49.662;8.448;2023-04-09T09:57:47;101587.00;;;15.66;100.00
37238;BME280;23129;49.662;8.448;2023-04-09T10:00:18;101595.88;;;15.35;100.00
37238;BME280;23129;49.662;8.448;2023-04-09T10:02:56;101591.22;;;15.14;100.00
37238;BME280;23129;49.662;8.448;2023-04-09T10:05:25;101595.25;;;14.94;100.00
37238;BME280;23129;49.662;8.448;2023-04-09T10:07:57;101594.66;;;14.84;100.00
37238;BME280;23129;49.662;8.448;2023-04-09T10:10:27;101587.84;;;14.76;100.00
37238;BME280;23129;49.662;8.448;2023-04-09T10:12:58;101588.00;;;14.70;100.00
37238;BME280;23129;49.662;8.448;2023-04-09T10:15:28;101596.00;;;14.67;100.00
37238;BME280;23129;49.662;8.448;2023-04-09T10:17:57;101590.81;;;14.64;100.00
37238;BME280;23129;49.662;8.448;2023-04-09T10:20:31;101581.19;;;14.61;100.00
37238;BME280;23129;49.662;8.448;2023-04-09T10:23:04;101583.81;;;14.61;100.00
37238;BME280;23129;49.662;8.448;2023-04-09T10:25:37;101583.78;;;14.63;100.00
37238;BME280;23129;49.662;8.448;2023-04-09T10:28:15;101585.38;;;14.70;100.00
37238;BME280;23129;49.662;8.448;2023-04-09T10:30:44;101587.00;;;14.74;100.00
37238;BME280;23129;49.662;8.448;2023-04-09T10:33:14;101581.72;;;14.74;100.00
37238;BME280;23129;49.662;8.448;2023-04-09T10:35:46;101574.53;;;14.79;100.00
37238;BME280;23129;49.662;8.448;2023-04-09T10:38:14;101576.00;;;14.89;100.00
37238;BME280;23129;49.662;8.448;2023-04-09T10:40:47;101568.66;;;15.00;100.00
37238;BME280;23129;49.662;8.448;2023-04-09T10:43:19;101563.13;;;15.10;100.00
37238;BME280;23129;49.662;8.448;2023-04-09T10:45:48;101568.31;;;15.13;100.00
37238;BME280;23129;49.662;8.448;2023-04-09T10:48:20;101574.53;;;15.12;100.00
37238;BME280;23129;49.662;8.448;2023-04-09T10:50:50;101568.41;;;15.10;100.00
37238;BME280;23129;49.662;8.448;2023-04-09T10:53:23;101564.78;;;15.14;100.00
37238;BME280;23129;49.662;8.448;2023-04-09T10:55:52;101560.28;;;15.16;100.00
37238;BME280;23129;49.662;8.448;2023-04-09T10:58:23;101573.25;;;15.25;100.00
37238;BME280;23129;49.662;8.448;2023-04-09T11:00:53;101567.69;;;15.34;100.00
37238;BME280;23129;49.662;8.448;2023-04-09T11:03:25;101559.38;;;15.46;100.00
37238;BME280;23129;49.662;8.448;2023-04-09T11:05:59;101565.13;;;15.61;100.00
37238;BME280;23129;49.662;8.448;2023-04-09T11:08:28;101558.50;;;15.77;100.00
37238;BME280;23129;49.662;8.448;2023-04-09T11:10:58;101558.19;;;15.86;100.00
37238;BME280;23129;49.662;8.448;2023-04-09T11:13:30;101553.53;;;15.94;100.00
37238;BME280;23129;49.662;8.448;2023-04-09T11:16:00;101549.56;;;16.08;100.00
37238;BME280;23129;49.662;8.448;2023-04-09T11:18:34;101544.56;;;16.25;100.00
37238;BME280;23129;49.662;8.448;2023-04-09T11:21:03;101544.97;;;16.39;100.00
37238;BME280;23129;49.662;8.448;2023-04-09T11:23:33;101543.38;;;16.59;100.00
37238;BME280;23129;49.662;8.448;2023-04-09T11:26:02;101536.44;;;16.81;100.00
37238;BME280;23129;49.662;8.448;2023-04-09T11:28:34;101538.31;;;17.03;100.00
37238;BME280;23129;49.662;8.448;2023-04-09T11:31:04;101541.75;;;17.28;100.00
37238;BME280;23129;49.662;8.448;2023-04-09T11:33:33;101534.59;;;17.54;100.00
37238;BME280;23129;49.662;8.448;2023-04-09T11:36:04;101532.06;;;17.73;100.00
37238;BME280;23129;49.662;8.448;2023-04-09T11:38:35;101533.97;;;17.69;100.00
37238;BME280;23129;49.662;8.448;2023-04-09T11:41:03;101527.72;;;17.70;100.00
37238;BME280;23129;49.662;8.448;2023-04-09T11:43:35;101528.78;;;17.66;100.00
37238;BME280;23129;49.662;8.448;2023-04-09T11:46:04;101532.25;;;17.68;100.00
37238;BME280;23129;49.662;8.448;2023-04-09T11:48:34;101530.38;;;17.70;100.00
37238;BME280;23129;49.662;8.448;2023-04-09T11:51:03;101533.28;;;17.64;100.00
37238;BME280;23129;49.662;8.448;2023-04-09T11:53:31;101540.59;;;17.59;100.00
37238;BME280;23129;49.662;8.448;2023-04-09T11:56:00;101533.88;;;17.49;100.00
37238;BME280;23129;49.662;8.448;2023-04-09T11:58:28;101532.78;;;17.32;100.00
37238;BME280;23129;49.662;8.448;2023-04-09T12:00:59;101536.69;;;17.22;100.00
37238;BME280;23129;49.662;8.448;2023-04-09T12:03:29;101538.66;;;17.17;100.00
37238;BME280;23129;49.662;8.448;2023-04-09T12:06:00;101542.69;;;17.04;100.00
37238;BME280;23129;49.662;8.448;2023-04-09T12:08:30;101534.44;;;16.88;100.00
37238;BME280;23129;49.662;8.448;2023-04-09T12:11:08;101534.91;;;16.74;100.00
37238;BME280;23129;49.662;8.448;2023-04-09T12:13:37;101533.72;;;16.58;100.00
37238;BME280;23129;49.662;8.448;2023-04-09T12:16:11;101532.31;;;16.48;100.00
37238;BME280;23129;49.662;8.448;2023-04-09T12:18:40;101531.41;;;16.49;100.00
37238;BME280;23129;49.662;8.448;2023-04-09T12:21:08;101536.53;;;16.53;100.00
37238;BME280;23129;49.662;8.448;2023-04-09T12:23:37;101529.50;;;16.52;100.00
37238;BME280;23129;49.662;8.448;2023-04-09T12:26:06;101532.19;;;16.51;100.00
37238;BME280;23129;49.662;8.448;2023-04-09T12:28:34;101529.31;;;16.57;100.00
37238;BME280;23129;49.662;8.448;2023-04-09T12:31:03;101525.44;;;16.67;100.00
37238;BME280;23129;49.662;8.448;2023-04-09T12:33:33;101522.56;;;16.73;100.00
37238;BME280;23129;49.662;8.448;2023-04-09T12:36:05;101516.22;;;16.79;100.00
37238;BME280;23129;49.662;8.448;2023-04-09T12:38:33;101520.66;;;16.78;100.00
37238;BME280;23129;49.662;8.448;2023-04-09T12:41:03;101514.44;;;16.79;100.00
37238;BME280;23129;49.662;8.448;2023-04-09T12:43:32;101511.66;;;16.82;100.00
37238;BME280;23129;49.662;8.448;2023-04-09T12:46:01;101510.75;;;16.83;100.00
37238;BME280;23129;49.662;8.448;2023-04-09T12:48:29;101505.16;;;16.91;100.00
37238;BME280;23129;49.662;8.448;2023-04-09T12:51:00;101507.59;;;16.97;100.00
37238;BME280;23129;49.662;8.448;2023-04-09T12:53:30;101507.50;;;16.99;100.00
37238;BME280;23129;49.662;8.448;2023-04-09T12:55:58;101501.59;;;16.92;100.00
37238;BME280;23129;49.662;8.448;2023-04-09T12:58:28;101504.53;;;16.84;100.00
37238;BME280;23129;49.662;8.448;2023-04-09T13:00:56;101504.06;;;16.72;100.00
37238;BME280;23129;49.662;8.448;2023-04-09T13:03:25;101501.72;;;16.64;100.00